sensor_id;sensor_type;location;lat;lon;timestamp;temperature;humidity
63802;DHT22;49949;43.060;25.624;2023-11-19T00:00:42;3.90;99.90
63802;DHT22;49949;43.060;25.624;2023-11-19T00:03:08;4.00;99.90
63802;DHT22;49949;43.060;25.624;2023-11-19T00:05:34;4.10;99.90
63802;DHT22;49949;43.060;25.624;2023-11-19T00:07:59;4.00;99.90
63802;DHT22;49949;43.060;25.624;2023-11-19T00:10:25;3.90;99.90
63802;DHT22;49949;43.060;25.624;2023-11-19T00:12:51;3.90;99.90
63802;DHT22;49949;43.060;25.624;2023-11-19T00:15:17;4.00;99.90
63802;DHT22;49949;43.060;25.624;2023-11-19T00:17:47;4.00;99.90
63802;DHT22;49949;43.060;25.624;2023-11-19T00:20:14;4.00;99.90
63802;DHT22;49949;43.060;25.624;2023-11-19T00:22:41;4.00;99.90
63802;DHT22;49949;43.060;25.624;2023-11-19T00:25:08;4.00;99.90
63802;DHT22;49949;43.060;25.624;2023-11-19T00:27:34;4.00;99.90
63802;DHT22;49949;43.060;25.624;2023-11-19T00:30:00;3.90;99.90
63802;DHT22;49949;43.060;25.624;2023-11-19T00:32:25;4.00;99.90
63802;DHT22;49949;43.060;25.624;2023-11-19T00:34:51;4.10;99.90
63802;DHT22;49949;43.060;25.624;2023-11-19T00:37:17;4.10;99.90
63802;DHT22;49949;43.060;25.624;2023-11-19T00:39:43;4.00;99.90
63802;DHT22;49949;43.060;25.624;2023-11-19T00:42:10;4.00;99.90
63802;DHT22;49949;43.060;25.624;2023-11-19T00:44:36;4.10;99.90
63802;DHT22;49949;43.060;25.624;2023-11-19T00:47:02;4.10;99.90
63802;DHT22;49949;43.060;25.624;2023-11-19T00:49:28;4.20;99.90
63802;DHT22;49949;43.060;25.624;2023-11-19T00:51:54;4.20;99.90
63802;DHT22;49949;43.060;25.624;2023-11-19T00:54:19;4.10;99.90
63802;DHT22;49949;43.060;25.624;2023-11-19T00:56:45;4.10;99.90
63802;DHT22;49949;43.060;25.624;2023-11-19T00:59:11;4.10;99.90
63802;DHT22;49949;43.060;25.624;2023-11-19T01:01:37;4.20;99.90
63802;DHT22;49949;43.060;25.624;2023-11-19T01:04:02;4.20;99.90
63802;DHT22;49949;43.060;25.624;2023-11-19T01:06:29;4.20;99.90
63802;DHT22;49949;43.060;25.624;2023-11-19T01:08:55;4.30;99.90
63802;DHT22;49949;43.060;25.624;2023-11-19T01:11:22;4.20;99.90
63802;DHT22;49949;43.060;25.624;2023-11-19T01:13:49;4.20;99.90
63802;DHT22;49949;43.060;25.624;2023-11-19T01:16:15;4.20;99.90
63802;DHT22;49949;43.060;25.624;2023-11-19T01:18:41;4.20;99.90
63802;DHT22;49949;43.060;25.624;2023-11-19T01:21:07;4.20;99.90
63802;DHT22;49949;43.060;25.624;2023-11-19T01:23:32;4.30;99.90
63802;DHT22;49949;43.060;25.624;2023-11-19T01:25:59;4.30;99.90
63802;DHT22;49949;43.060;25.624;2023-11-19T01:28:25;4.30;99.90
63802;DHT22;49949;43.060;25.624;2023-11-19T01:30:51;4.30;99.90
63802;DHT22;49949;43.060;25.624;2023-11-19T01:33:17;4.30;99.90
63802;DHT22;49949;43.060;25.624;2023-11-19T01:35:42;4.20;99.90
63802;DHT22;49949;43.060;25.624;2023-11-19T01:38:08;4.30;99.90
63802;DHT22;49949;43.060;25.624;2023-11-19T01:40:34;4.30;99.90
63802;DHT22;49949;43.060;25.624;2023-11-19T01:43:02;4.30;99.90
63802;DHT22;49949;43.060;25.624;2023-11-19T01:45:29;4.30;99.90
63802;DHT22;49949;43.060;25.624;2023-11-19T01:48:00;4.40;99.90
63802;DHT22;49949;43.060;25.624;2023-11-19T01:50:26;4.40;99.90
63802;DHT22;49949;43.060;25.624;2023-11-19T01:52:54;4.40;99.90
63802;DHT22;49949;43.060;25.624;2023-11-19T01:55:24;4.30;99.90
63802;DHT22;49949;43.060;25.624;2023-11-19T01:57:50;4.40;99.90
63802;DHT22;49949;43.060;25.624;2023-11-19T02:00:16;4.40;99.90
63802;DHT22;49949;43.060;25.624;2023-11-19T02:02:46;4.40;99.90
63802;DHT22;49949;43.060;25.624;2023-11-19T02:05:13;4.50;99.90
63802;DHT22;49949;43.060;25.624;2023-11-19T02:07:39;4.50;99.90
63802;DHT22;49949;43.060;25.624;2023-11-19T02:10:06;4.40;99.90
63802;DHT22;49949;43.060;25.624;2023-11-19T02:12:33;4.40;99.90
63802;DHT22;49949;43.060;25.624;2023-11-19T02:15:03;4.40;99.90
63802;DHT22;49949;43.060;25.624;2023-11-19T02:17:30;4.50;99.90
63802;DHT22;49949;43.060;25.624;2023-11-19T02:20:00;4.60;99.90
63802;DHT22;49949;43.060;25.624;2023-11-19T02:22:25;4.50;99.90
63802;DHT22;49949;43.060;25.624;2023-11-19T02:24:54;4.50;99.90
63802;DHT22;49949;43.060;25.624;2023-11-19T02:27:51;4.50;99.90
63802;DHT22;49949;43.060;25.624;2023-11-19T02:30:21;4.60;99.90
63802;DHT22;49949;43.060;25.624;2023-11-19T02:32:52;4.60;99.90
63802;DHT22;49949;43.060;25.624;2023-11-19T02:35:18;4.60;99.90
63802;DHT22;49949;43.060;25.624;2023-11-19T02:37:44;4.50;99.90
63802;DHT22;49949;43.060;25.624;2023-11-19T02:40:10;4.60;99.90
63802;DHT22;49949;43.060;25.624;2023-11-19T02:42:36;4.60;99.90
63802;DHT22;49949;43.060;25.624;2023-11-19T02:45:02;4.60;99.90
63802;DHT22;49949;43.060;25.624;2023-11-19T02:47:33;4.60;99.90
63802;DHT22;49949;43.060;25.624;2023-11-19T02:49:59;4.60;99.90
63802;DHT22;49949;43.060;25.624;2023-11-19T02:52:25;4.70;99.90
63802;DHT22;49949;43.060;25.624;2023-11-19T02:54:51;4.70;99.90
63802;DHT22;49949;43.060;25.624;2023-11-19T02:57:18;4.70;99.90
63802;DHT22;49949;43.060;25.624;2023-11-19T02:59:46;4.60;99.90
63802;DHT22;49949;43.060;25.624;2023-11-19T03:02:12;4.70;99.90
63802;DHT22;49949;43.060;25.624;2023-11-19T03:04:41;4.70;99.90
63802;DHT22;49949;43.060;25.624;2023-11-19T03:07:09;4.70;99.90
63802;DHT22;49949;43.060;25.624;2023-11-19T03:09:35;4.80;99.90
63802;DHT22;49949;43.060;25.624;2023-11-19T03:12:01;4.80;99.90
63802;DHT22;49949;43.060;25.624;2023-11-19T03:14:27;4.80;99.90
63802;DHT22;49949;43.060;25.624;2023-11-19T03:16:53;4.80;99.90
63802;DHT22;49949;43.060;25.624;2023-11-19T03:19:19;4.70;99.90
63802;DHT22;49949;43.060;25.624;2023-11-19T03:21:44;4.70;99.90
63802;DHT22;49949;43.060;25.624;2023-11-19T03:24:12;4.70;99.90
63802;DHT22;49949;43.060;25.624;2023-11-19T03:26:38;4.70;99.90
63802;DHT22;49949;43.060;25.624;2023-11-19T03:29:04;4.70;99.90
63802;DHT22;49949;43.060;25.624;2023-11-19T03:31:30;4.80;99.90
63802;DHT22;49949;43.060;25.624;2023-11-19T03:33:56;4.80;99.90
63802;DHT22;49949;43.060;25.624;2023-11-19T03:36:22;4.80;99.90
63802;DHT22;49949;43.060;25.624;2023-11-19T03:38:48;4.80;99.90
63802;DHT22;49949;43.060;25.624;2023-11-19T03:41:14;4.80;99.90
63802;DHT22;49949;43.060;25.624;2023-11-19T03:43:40;4.80;99.90
63802;DHT22;49949;43.060;25.624;2023-11-19T03:46:26;4.70;99.90
63802;DHT22;49949;43.060;25.624;2023-11-19T03:48:52;4.70;99.90
63802;DHT22;49949;43.060;25.624;2023-11-19T03:51:18;4.70;99.90
63802;DHT22;49949;43.060;25.624;2023-11-19T03:53:47;4.70;99.90
63802;DHT22;49949;43.060;25.624;2023-11-19T03:56:12;4.70;99.90
63802;DHT22;49949;43.060;25.624;2023-11-19T03:58:39;4.80;99.90
63802;DHT22;49949;43.060;25.624;2023-11-19T04:01:05;4.70;99.90
63802;DHT22;49949;43.060;25.624;2023-11-19T04:03:31;4.70;99.90
63802;DHT22;49949;43.060;25.624;2023-11-19T04:05:57;4.70;99.90
63802;DHT22;49949;43.060;25.624;2023-11-19T04:08:23;4.70;99.90
63802;DHT22;49949;43.060;25.624;2023-11-19T04:10:48;4.60;99.90
63802;DHT22;49949;43.060;25.624;2023-11-19T04:13:14;4.60;99.90
63802;DHT22;49949;43.060;25.624;2023-11-19T04:15:40;4.60;99.90
63802;DHT22;49949;43.060;25.624;2023-11-19T04:18:05;4.70;99.90
63802;DHT22;49949;43.060;25.624;2023-11-19T04:20:31;4.70;99.90
63802;DHT22;49949;43.060;25.624;2023-11-19T04:22:57;4.60;99.90
63802;DHT22;49949;43.060;25.624;2023-11-19T04:25:23;4.60;99.90
63802;DHT22;49949;43.060;25.624;2023-11-19T04:27:51;4.60;99.90
63802;DHT22;49949;43.060;25.624;2023-11-19T04:30:17;4.60;99.90
63802;DHT22;49949;43.060;25.624;2023-11-19T04:32:44;4.60;99.90
63802;DHT22;49949;43.060;25.624;2023-11-19T04:35:10;4.70;99.90
63802;DHT22;49949;43.060;25.624;2023-11-19T04:37:36;4.70;99.90
63802;DHT22;49949;43.060;25.624;2023-11-19T04:40:03;4.60;99.90
63802;DHT22;49949;43.060;25.624;2023-11-19T04:42:28;4.60;99.90
63802;DHT22;49949;43.060;25.624;2023-11-19T04:44:55;4.50;99.90
63802;DHT22;49949;43.060;25.624;2023-11-19T04:47:21;4.50;99.90
63802;DHT22;49949;43.060;25.624;2023-11-19T04:49:46;4.60;99.90
63802;DHT22;49949;43.060;25.624;2023-11-19T04:52:12;4.60;99.90
63802;DHT22;49949;43.060;25.624;2023-11-19T04:54:42;4.60;99.90
63802;DHT22;49949;43.060;25.624;2023-11-19T04:57:09;4.60;99.90
63802;DHT22;49949;43.060;25.624;2023-11-19T04:59:38;4.60;99.90
63802;DHT22;49949;43.060;25.624;2023-11-19T05:02:04;4.70;99.90
63802;DHT22;49949;43.060;25.624;2023-11-19T05:04:31;4.60;99.90
63802;DHT22;49949;43.060;25.624;2023-11-19T05:06:56;4.60;99.90
63802;DHT22;49949;43.060;25.624;2023-11-19T05:09:23;4.70;99.90
63802;DHT22;49949;43.060;25.624;2023-11-19T05:11:48;4.70;99.90
63802;DHT22;49949;43.060;25.624;2023-11-19T05:14:14;4.70;99.90
63802;DHT22;49949;43.060;25.624;2023-11-19T05:16:41;4.70;99.90
63802;DHT22;49949;43.060;25.624;2023-11-19T05:19:07;4.70;99.90
63802;DHT22;49949;43.060;25.624;2023-11-19T05:21:32;4.80;99.90
63802;DHT22;49949;43.060;25.624;2023-11-19T05:24:01;4.80;99.90
63802;DHT22;49949;43.060;25.624;2023-11-19T05:26:30;4.80;99.90
63802;DHT22;49949;43.060;25.624;2023-11-19T05:28:56;4.80;99.90
63802;DHT22;49949;43.060;25.624;2023-11-19T05:31:21;4.90;99.90
63802;DHT22;49949;43.060;25.624;2023-11-19T05:33:47;4.90;99.90
63802;DHT22;49949;43.060;25.624;2023-11-19T05:36:13;4.80;99.90
63802;DHT22;49949;43.060;25.624;2023-11-19T05:38:39;4.80;99.90
63802;DHT22;49949;43.060;25.624;2023-11-19T05:41:05;4.90;99.90
63802;DHT22;49949;43.060;25.624;2023-11-19T05:43:31;4.90;99.90
63802;DHT22;49949;43.060;25.624;2023-11-19T05:45:57;4.90;99.90
63802;DHT22;49949;43.060;25.624;2023-11-19T05:48:25;4.70;99.90
63802;DHT22;49949;43.060;25.624;2023-11-19T05:50:51;4.70;99.90
63802;DHT22;49949;43.060;25.624;2023-11-19T05:53:17;4.70;99.90
63802;DHT22;49949;43.060;25.624;2023-11-19T05:55:42;4.80;99.90
63802;DHT22;49949;43.060;25.624;2023-11-19T05:58:24;4.70;99.90
63802;DHT22;49949;43.060;25.624;2023-11-19T06:00:51;4.80;99.90
63802;DHT22;49949;43.060;25.624;2023-11-19T06:03:17;4.80;99.90
63802;DHT22;49949;43.060;25.624;2023-11-19T06:05:46;4.80;99.90
63802;DHT22;49949;43.060;25.624;2023-11-19T06:08:12;4.80;99.90
63802;DHT22;49949;43.060;25.624;2023-11-19T06:10:41;4.80;99.90
63802;DHT22;49949;43.060;25.624;2023-11-19T06:13:07;4.70;99.90
63802;DHT22;49949;43.060;25.624;2023-11-19T06:15:35;4.70;99.90
63802;DHT22;49949;43.060;25.624;2023-11-19T06:18:02;4.80;99.90
63802;DHT22;49949;43.060;25.624;2023-11-19T06:20:32;4.90;99.90
63802;DHT22;49949;43.060;25.624;2023-11-19T06:22:58;5.00;99.90
63802;DHT22;49949;43.060;25.624;2023-11-19T06:25:24;5.00;99.90
63802;DHT22;49949;43.060;25.624;2023-11-19T06:27:50;5.00;99.90
63802;DHT22;49949;43.060;25.624;2023-11-19T06:30:16;5.00;99.90
63802;DHT22;49949;43.060;25.624;2023-11-19T06:32:42;5.00;99.90
63802;DHT22;49949;43.060;25.624;2023-11-19T06:35:08;4.90;99.90
63802;DHT22;49949;43.060;25.624;2023-11-19T06:37:43;5.00;99.90
63802;DHT22;49949;43.060;25.624;2023-11-19T06:40:10;5.00;99.90
63802;DHT22;49949;43.060;25.624;2023-11-19T06:42:35;5.10;99.90
63802;DHT22;49949;43.060;25.624;2023-11-19T06:45:02;5.10;99.90
63802;DHT22;49949;43.060;25.624;2023-11-19T06:47:29;5.20;99.90
63802;DHT22;49949;43.060;25.624;2023-11-19T06:49:55;5.20;99.90
63802;DHT22;49949;43.060;25.624;2023-11-19T06:52:21;5.20;99.90
63802;DHT22;49949;43.060;25.624;2023-11-19T06:54:47;5.20;99.90
63802;DHT22;49949;43.060;25.624;2023-11-19T06:57:13;5.20;99.90
63802;DHT22;49949;43.060;25.624;2023-11-19T06:59:39;5.10;99.90
63802;DHT22;49949;43.060;25.624;2023-11-19T07:02:06;5.10;99.90
63802;DHT22;49949;43.060;25.624;2023-11-19T07:04:32;5.20;99.90
63802;DHT22;49949;43.060;25.624;2023-11-19T07:06:58;5.20;99.90
63802;DHT22;49949;43.060;25.624;2023-11-19T07:09:25;5.20;99.90
63802;DHT22;49949;43.060;25.624;2023-11-19T07:11:51;5.30;99.90
63802;DHT22;49949;43.060;25.624;2023-11-19T07:14:17;5.30;99.90
63802;DHT22;49949;43.060;25.624;2023-11-19T07:16:44;5.30;99.90
63802;DHT22;49949;43.060;25.624;2023-11-19T07:19:10;5.30;99.90
63802;DHT22;49949;43.060;25.624;2023-11-19T07:21:37;5.30;99.90
63802;DHT22;49949;43.060;25.624;2023-11-19T07:24:09;5.40;99.90
63802;DHT22;49949;43.060;25.624;2023-11-19T07:26:35;5.40;99.90
63802;DHT22;49949;43.060;25.624;2023-11-19T07:29:02;5.50;99.90
63802;DHT22;49949;43.060;25.624;2023-11-19T07:31:28;5.50;99.90
63802;DHT22;49949;43.060;25.624;2023-11-19T07:33:54;5.50;99.90
63802;DHT22;49949;43.060;25.624;2023-11-19T07:36:20;5.60;99.90
63802;DHT22;49949;43.060;25.624;2023-11-19T07:38:46;5.70;99.90
63802;DHT22;49949;43.060;25.624;2023-11-19T07:41:13;5.70;99.90
63802;DHT22;49949;43.060;25.624;2023-11-19T07:43:45;5.70;99.90
63802;DHT22;49949;43.060;25.624;2023-11-19T07:46:12;5.70;99.90
63802;DHT22;49949;43.060;25.624;2023-11-19T07:48:39;5.80;99.90
63802;DHT22;49949;43.060;25.624;2023-11-19T07:51:05;5.90;99.90
63802;DHT22;49949;43.060;25.624;2023-11-19T07:53:31;5.90;99.90
63802;DHT22;49949;43.060;25.624;2023-11-19T07:55:58;6.00;99.90
63802;DHT22;49949;43.060;25.624;2023-11-19T07:58:25;6.10;99.90
63802;DHT22;49949;43.060;25.624;2023-11-19T08:00:51;6.20;99.90
63802;DHT22;49949;43.060;25.624;2023-11-19T08:03:17;6.30;99.90
63802;DHT22;49949;43.060;25.624;2023-11-19T08:05:44;6.20;99.90
63802;DHT22;49949;43.060;25.624;2023-11-19T08:08:10;6.10;99.90
63802;DHT22;49949;43.060;25.624;2023-11-19T08:10:36;6.20;99.90
63802;DHT22;49949;43.060;25.624;2023-11-19T08:13:02;6.20;99.90
63802;DHT22;49949;43.060;25.624;2023-11-19T08:15:28;6.20;99.90
63802;DHT22;49949;43.060;25.624;2023-11-19T08:17:53;6.20;99.90
63802;DHT22;49949;43.060;25.624;2023-11-19T08:20:19;6.20;99.90
63802;DHT22;49949;43.060;25.624;2023-11-19T08:22:44;6.30;99.90
63802;DHT22;49949;43.060;25.624;2023-11-19T08:25:10;6.30;99.90
63802;DHT22;49949;43.060;25.624;2023-11-19T08:27:36;6.40;99.90
63802;DHT22;49949;43.060;25.624;2023-11-19T08:30:02;6.40;99.90
63802;DHT22;49949;43.060;25.624;2023-11-19T08:32:28;6.50;99.90
63802;DHT22;49949;43.060;25.624;2023-11-19T08:34:54;6.60;99.90
63802;DHT22;49949;43.060;25.624;2023-11-19T08:37:20;6.60;99.90
63802;DHT22;49949;43.060;25.624;2023-11-19T08:39:49;6.60;99.90
63802;DHT22;49949;43.060;25.624;2023-11-19T08:42:15;6.60;99.90
63802;DHT22;49949;43.060;25.624;2023-11-19T08:44:41;6.70;99.90
63802;DHT22;49949;43.060;25.624;2023-11-19T08:47:09;6.80;99.90
63802;DHT22;49949;43.060;25.624;2023-11-19T08:49:35;6.80;99.90
63802;DHT22;49949;43.060;25.624;2023-11-19T08:52:01;6.80;99.90
63802;DHT22;49949;43.060;25.624;2023-11-19T08:54:27;6.90;99.90
63802;DHT22;49949;43.060;25.624;2023-11-19T08:56:52;6.90;99.90
63802;DHT22;49949;43.060;25.624;2023-11-19T08:59:18;6.90;99.90
63802;DHT22;49949;43.060;25.624;2023-11-19T09:01:44;7.00;99.90
63802;DHT22;49949;43.060;25.624;2023-11-19T09:04:10;7.20;99.90
63802;DHT22;49949;43.060;25.624;2023-11-19T09:06:36;7.30;99.90
63802;DHT22;49949;43.060;25.624;2023-11-19T09:09:02;7.50;99.90
63802;DHT22;49949;43.060;25.624;2023-11-19T09:11:29;7.60;99.90
63802;DHT22;49949;43.060;25.624;2023-11-19T09:13:55;7.70;99.90
63802;DHT22;49949;43.060;25.624;2023-11-19T09:16:20;7.60;99.90
63802;DHT22;49949;43.060;25.624;2023-11-19T09:18:47;7.50;99.90
63802;DHT22;49949;43.060;25.624;2023-11-19T09:21:13;7.50;99.90
63802;DHT22;49949;43.060;25.624;2023-11-19T09:23:38;7.60;99.90
63802;DHT22;49949;43.060;25.624;2023-11-19T09:26:10;7.60;99.90
63802;DHT22;49949;43.060;25.624;2023-11-19T09:28:36;7.60;99.90
63802;DHT22;49949;43.060;25.624;2023-11-19T09:31:02;7.60;99.90
63802;DHT22;49949;43.060;25.624;2023-11-19T09:33:30;7.70;99.90
63802;DHT22;49949;43.060;25.624;2023-11-19T09:35:56;7.60;99.90
63802;DHT22;49949;43.060;25.624;2023-11-19T09:38:23;7.60;99.90
63802;DHT22;49949;43.060;25.624;2023-11-19T09:40:48;7.60;99.90
63802;DHT22;49949;43.060;25.624;2023-11-19T09:43:18;7.50;99.90
63802;DHT22;49949;43.060;25.624;2023-11-19T09:45:50;7.50;99.90
63802;DHT22;49949;43.060;25.624;2023-11-19T09:48:19;7.50;99.90
63802;DHT22;49949;43.060;25.624;2023-11-19T09:50:47;7.50;99.90
63802;DHT22;49949;43.060;25.624;2023-11-19T09:53:14;7.60;99.90
63802;DHT22;49949;43.060;25.624;2023-11-19T09:55:40;7.70;99.90
63802;DHT22;49949;43.060;25.624;2023-11-19T09:58:07;7.80;99.90
63802;DHT22;49949;43.060;25.624;2023-11-19T10:00:34;7.80;99.90
63802;DHT22;49949;43.060;25.624;2023-11-19T10:03:00;7.80;99.90
63802;DHT22;49949;43.060;25.624;2023-11-19T10:05:26;7.80;99.90
63802;DHT22;49949;43.060;25.624;2023-11-19T10:07:52;7.70;99.90
63802;DHT22;49949;43.060;25.624;2023-11-19T10:10:18;7.70;99.90
63802;DHT22;49949;43.060;25.624;2023-11-19T10:12:47;7.70;99.90
63802;DHT22;49949;43.060;25.624;2023-11-19T10:15:24;7.80;99.90
63802;DHT22;49949;43.060;25.624;2023-11-19T10:17:55;7.90;99.90
63802;DHT22;49949;43.060;25.624;2023-11-19T10:20:20;8.00;99.90
63802;DHT22;49949;43.060;25.624;2023-11-19T10:22:46;8.10;99.90
63802;DHT22;49949;43.060;25.624;2023-11-19T10:25:28;8.30;99.90
63802;DHT22;49949;43.060;25.624;2023-11-19T10:27:58;8.50;99.90
63802;DHT22;49949;43.060;25.624;2023-11-19T10:30:24;8.60;99.90
63802;DHT22;49949;43.060;25.624;2023-11-19T10:33:11;8.80;99.90
63802;DHT22;49949;43.060;25.624;2023-11-19T10:35:55;8.80;99.90
63802;DHT22;49949;43.060;25.624;2023-11-19T10:38:25;8.90;99.90
63802;DHT22;49949;43.060;25.624;2023-11-19T10:40:52;8.90;99.90
63802;DHT22;49949;43.060;25.624;2023-11-19T10:43:19;8.90;99.90
63802;DHT22;49949;43.060;25.624;2023-11-19T10:45:46;8.90;99.90
63802;DHT22;49949;43.060;25.624;2023-11-19T10:48:12;8.90;99.90
63802;DHT22;49949;43.060;25.624;2023-11-19T10:50:40;9.00;99.90
63802;DHT22;49949;43.060;25.624;2023-11-19T10:53:07;9.00;99.90
63802;DHT22;49949;43.060;25.624;2023-11-19T10:55:35;9.00;99.90
63802;DHT22;49949;43.060;25.624;2023-11-19T10:58:08;9.10;99.90
63802;DHT22;49949;43.060;25.624;2023-11-19T11:03:19;9.10;99.90
63802;DHT22;49949;43.060;25.624;2023-11-19T11:05:49;9.10;99.90
63802;DHT22;49949;43.060;25.624;2023-11-19T11:08:17;9.10;99.90
63802;DHT22;49949;43.060;25.624;2023-11-19T11:10:45;9.20;99.90
63802;DHT22;49949;43.060;25.624;2023-11-19T11:13:11;9.20;99.90
63802;DHT22;49949;43.060;25.624;2023-11-19T11:15:39;9.20;99.90
63802;DHT22;49949;43.060;25.624;2023-11-19T11:18:08;9.20;99.90
63802;DHT22;49949;43.060;25.624;2023-11-19T11:20:35;9.10;99.90
63802;DHT22;49949;43.060;25.624;2023-11-19T11:31:58;8.70;99.90
63802;DHT22;49949;43.060;25.624;2023-11-19T11:37:21;8.60;99.90
63802;DHT22;49949;43.060;25.624;2023-11-19T11:39:50;8.60;99.90
63802;DHT22;49949;43.060;25.624;2023-11-19T11:45:05;8.60;99.90
63802;DHT22;49949;43.060;25.624;2023-11-19T11:50:19;8.60;99.90
63802;DHT22;49949;43.060;25.624;2023-11-19T11:55:34;8.60;99.90
63802;DHT22;49949;43.060;25.624;2023-11-19T11:58:02;8.70;99.90
63802;DHT22;49949;43.060;25.624;2023-11-19T12:00:30;8.70;99.90
63802;DHT22;49949;43.060;25.624;2023-11-19T12:02:59;8.70;99.90
63802;DHT22;49949;43.060;25.624;2023-11-19T12:05:25;8.70;99.90
63802;DHT22;49949;43.060;25.624;2023-11-19T12:08:00;8.70;99.90
63802;DHT22;49949;43.060;25.624;2023-11-19T12:10:29;8.60;99.90
63802;DHT22;49949;43.060;25.624;2023-11-19T12:12:58;8.60;99.90
63802;DHT22;49949;43.060;25.624;2023-11-19T12:15:25;8.60;99.90
63802;DHT22;49949;43.060;25.624;2023-11-19T12:17:53;8.70;99.90
63802;DHT22;49949;43.060;25.624;2023-11-19T12:20:24;8.70;99.90
63802;DHT22;49949;43.060;25.624;2023-11-19T12:22:50;8.80;99.90
63802;DHT22;49949;43.060;25.624;2023-11-19T12:25:17;8.90;99.90
63802;DHT22;49949;43.060;25.624;2023-11-19T12:28:01;8.90;99.90
63802;DHT22;49949;43.060;25.624;2023-11-19T12:30:29;8.90;99.90
63802;DHT22;49949;43.060;25.624;2023-11-19T12:32:55;9.00;99.90
63802;DHT22;49949;43.060;25.624;2023-11-19T12:35:22;9.10;99.90
63802;DHT22;49949;43.060;25.624;2023-11-19T12:37:50;9.00;99.90
63802;DHT22;49949;43.060;25.624;2023-11-19T12:42:46;9.10;99.90
63802;DHT22;49949;43.060;25.624;2023-11-19T12:45:12;9.00;99.90
63802;DHT22;49949;43.060;25.624;2023-11-19T12:47:39;9.10;99.90
63802;DHT22;49949;43.060;25.624;2023-11-19T12:50:09;9.10;99.90
63802;DHT22;49949;43.060;25.624;2023-11-19T12:52:38;9.10;99.90
63802;DHT22;49949;43.060;25.624;2023-11-19T12:55:05;9.20;99.90
63802;DHT22;49949;43.060;25.624;2023-11-19T12:57:49;9.20;99.90
63802;DHT22;49949;43.060;25.624;2023-11-19T13:00:25;9.10;99.90
63802;DHT22;49949;43.060;25.624;2023-11-19T13:02:56;9.20;99.90
63802;DHT22;49949;43.060;25.624;2023-11-19T13:05:26;9.20;99.90
63802;DHT22;49949;43.060;25.624;2023-11-19T13:10:24;9.10;99.90
63802;DHT22;49949;43.060;25.624;2023-11-19T13:13:20;9.10;99.90
63802;DHT22;49949;43.060;25.624;2023-11-19T13:15:46;9.10;99.90
63802;DHT22;49949;43.060;25.624;2023-11-19T13:18:12;9.10;99.90
63802;DHT22;49949;43.060;25.624;2023-11-19T13:20:38;9.10;99.90
63802;DHT22;49949;43.060;25.624;2023-11-19T13:23:05;9.10;99.90
63802;DHT22;49949;43.060;25.624;2023-11-19T13:25:32;9.10;99.90
63802;DHT22;49949;43.060;25.624;2023-11-19T13:27:59;9.10;99.90
63802;DHT22;49949;43.060;25.624;2023-11-19T13:30:25;9.10;99.90
63802;DHT22;49949;43.060;25.624;2023-11-19T13:32:52;9.10;99.90
63802;DHT22;49949;43.060;25.624;2023-11-19T13:35:18;9.10;99.90
63802;DHT22;49949;43.060;25.624;2023-11-19T13:37:45;9.10;99.90
63802;DHT22;49949;43.060;25.624;2023-11-19T13:40:11;9.00;99.90
63802;DHT22;49949;43.060;25.624;2023-11-19T13:42:41;9.00;99.90
63802;DHT22;49949;43.060;25.624;2023-11-19T13:45:11;8.90;99.90
63802;DHT22;49949;43.060;25.624;2023-11-19T13:47:45;8.90;99.90
63802;DHT22;49949;43.060;25.624;2023-11-19T13:50:14;8.80;99.90
63802;DHT22;49949;43.060;25.624;2023-11-19T13:52:42;8.90;99.90
63802;DHT22;49949;43.060;25.624;2023-11-19T13:55:09;8.90;99.90
63802;DHT22;49949;43.060;25.624;2023-11-19T13:57:39;8.90;99.90
63802;DHT22;49949;43.060;25.624;2023-11-19T14:00:07;8.90;99.90
63802;DHT22;49949;43.060;25.624;2023-11-19T14:02:41;8.80;99.90
63802;DHT22;49949;43.060;25.624;2023-11-19T14:05:08;8.80;99.90
63802;DHT22;49949;43.060;25.624;2023-11-19T14:07:34;8.70;99.90
63802;DHT22;49949;43.060;25.624;2023-11-19T14:09:59;8.70;99.90
63802;DHT22;49949;43.060;25.624;2023-11-19T14:12:25;8.60;99.90
63802;DHT22;49949;43.060;25.624;2023-11-19T14:14:51;8.60;99.90
63802;DHT22;49949;43.060;25.624;2023-11-19T14:17:16;8.40;99.90
63802;DHT22;49949;43.060;25.624;2023-11-19T14:19:43;8.40;99.90
63802;DHT22;49949;43.060;25.624;2023-11-19T14:22:09;8.30;99.90
63802;DHT22;49949;43.060;25.624;2023-11-19T14:24:35;8.30;99.90
63802;DHT22;49949;43.060;25.624;2023-11-19T14:27:01;8.30;99.90
63802;DHT22;49949;43.060;25.624;2023-11-19T14:29:27;8.30;99.90
63802;DHT22;49949;43.060;25.624;2023-11-19T14:31:56;8.30;99.90
63802;DHT22;49949;43.060;25.624;2023-11-19T14:34:24;8.30;99.90
63802;DHT22;49949;43.060;25.624;2023-11-19T14:36:50;8.30;99.90
63802;DHT22;49949;43.060;25.624;2023-11-19T14:39:16;8.20;99.90
63802;DHT22;49949;43.060;25.624;2023-11-19T14:41:42;8.10;99.90
63802;DHT22;49949;43.060;25.624;2023-11-19T14:44:09;8.00;99.90
63802;DHT22;49949;43.060;25.624;2023-11-19T14:46:35;7.90;99.90
63802;DHT22;49949;43.060;25.624;2023-11-19T14:49:01;7.90;99.90
63802;DHT22;49949;43.060;25.624;2023-11-19T14:51:27;7.90;99.90
63802;DHT22;49949;43.060;25.624;2023-11-19T14:53:52;7.80;99.90
63802;DHT22;49949;43.060;25.624;2023-11-19T14:56:18;7.70;99.90
63802;DHT22;49949;43.060;25.624;2023-11-19T14:58:44;7.70;99.90
63802;DHT22;49949;43.060;25.624;2023-11-19T15:01:13;7.60;99.90
63802;DHT22;49949;43.060;25.624;2023-11-19T15:03:39;7.60;99.90
63802;DHT22;49949;43.060;25.624;2023-11-19T15:06:06;7.50;99.90
63802;DHT22;49949;43.060;25.624;2023-11-19T15:08:32;7.50;99.90
63802;DHT22;49949;43.060;25.624;2023-11-19T15:10:58;7.40;99.90
63802;DHT22;49949;43.060;25.624;2023-11-19T15:13:25;7.40;99.90
63802;DHT22;49949;43.060;25.624;2023-11-19T15:15:51;7.40;99.90
63802;DHT22;49949;43.060;25.624;2023-11-19T15:18:18;7.30;99.90
63802;DHT22;49949;43.060;25.624;2023-11-19T15:20:44;7.30;99.90
63802;DHT22;49949;43.060;25.624;2023-11-19T15:23:16;7.20;99.90
63802;DHT22;49949;43.060;25.624;2023-11-19T15:25:42;7.20;99.90
63802;DHT22;49949;43.060;25.624;2023-11-19T15:28:08;7.20;99.90
63802;DHT22;49949;43.060;25.624;2023-11-19T15:30:35;7.10;99.90
63802;DHT22;49949;43.060;25.624;2023-11-19T15:33:01;7.10;99.90
63802;DHT22;49949;43.060;25.624;2023-11-19T15:35:26;7.10;99.90
63802;DHT22;49949;43.060;25.624;2023-11-19T15:37:52;7.00;99.90
63802;DHT22;49949;43.060;25.624;2023-11-19T15:40:18;7.00;99.90
63802;DHT22;49949;43.060;25.624;2023-11-19T15:42:45;6.90;99.90
63802;DHT22;49949;43.060;25.624;2023-11-19T15:45:12;6.80;99.90
63802;DHT22;49949;43.060;25.624;2023-11-19T15:47:38;6.70;99.90
63802;DHT22;49949;43.060;25.624;2023-11-19T15:50:05;6.60;99.90
63802;DHT22;49949;43.060;25.624;2023-11-19T15:52:32;6.30;99.90
63802;DHT22;49949;43.060;25.624;2023-11-19T15:54:58;6.20;99.90
63802;DHT22;49949;43.060;25.624;2023-11-19T15:57:24;6.10;99.90